createdAt,value
2016-11-15T11:03:05.461Z,45
2016-11-15T11:04:19.154Z,60
2016-11-15T11:10:47.498Z,40
2016-11-15T11:21:52.318Z,50
2016-11-15T11:23:09.450Z,60
2016-11-15T11:24:22.920Z,55
2016-11-15T11:25:37.714Z,65
2016-11-15T11:29:17.902Z,55
2016-11-15T11:30:46.676Z,60
2016-11-15T11:35:48.046Z,60
2016-11-15T11:39:15.220Z,65
2016-11-15T11:41:50.510Z,55
2016-11-15T11:43:05.091Z,60
2016-11-15T11:44:33.799Z,65
2016-11-15T11:45:47.718Z,65
2016-11-15T11:47:16.833Z,70
2016-11-15T11:48:30.616Z,70
2016-11-15T11:49:44.093Z,65
2016-11-15T11:50:57.630Z,65
2016-11-15T11:52:11.158Z,60
2016-11-15T11:53:25.548Z,55
2016-11-15T11:54:41.787Z,55
2016-11-15T11:55:57.137Z,60
2016-11-15T12:02:46.721Z,70
2016-11-15T12:04:01.478Z,55
2016-11-15T12:05:15.561Z,60
2016-11-15T12:06:29.064Z,55
2016-11-15T12:07:43.104Z,50
2016-11-15T12:08:59.530Z,50
2016-11-15T12:10:14.024Z,50
2016-11-15T12:11:30.920Z,40
2016-11-15T12:12:44.638Z,35
2016-11-15T12:13:58.893Z,30
2016-11-15T12:15:27.481Z,30
2016-11-15T12:16:41.613Z,30
2016-11-15T12:17:55.146Z,35
2016-11-15T12:19:08.662Z,40
2016-11-15T12:20:37.201Z,35
2016-11-15T12:21:51.253Z,45
2016-11-15T12:23:05.044Z,45
2016-11-15T12:24:18.608Z,50
2016-11-15T12:25:32.205Z,65
2016-11-15T12:26:47.726Z,65
2016-11-15T12:28:17.648Z,60
2016-11-15T15:50:35.703Z,0
2016-11-15T15:51:51.288Z,0
2016-11-15T15:57:53.334Z,0
2016-11-15T16:02:20.752Z,0
2016-11-15T16:03:50.251Z,0
2016-11-15T16:05:34.117Z,0
2016-11-15T16:07:03.446Z,0
2016-11-15T16:08:33.497Z,0
2016-11-15T16:11:32.426Z,0
2016-11-15T16:13:01.328Z,0
2016-11-15T16:14:15.944Z,0
2016-11-15T16:18:01.054Z,0
2016-11-15T16:19:30.459Z,0
2016-11-15T16:20:46.969Z,0
2016-11-15T16:22:01.828Z,0
2016-11-15T16:23:31.847Z,0
2016-11-15T16:24:46.741Z,0
2016-11-15T16:26:01.367Z,0
2016-11-15T16:27:16.291Z,0
2016-11-15T16:28:32.095Z,0
2016-11-15T16:29:48.308Z,0
2016-11-15T16:31:03.709Z,0
2016-11-15T16:32:18.315Z,0
2016-11-15T16:33:32.892Z,0
2016-11-15T16:35:03.143Z,0
2016-11-15T16:36:18.007Z,0
2016-11-15T16:37:32.469Z,0
2016-11-15T16:38:47.008Z,0
2016-11-15T16:40:01.249Z,0
2016-11-15T16:41:15.642Z,0
2016-11-15T16:42:30.337Z,0
2016-11-15T16:43:44.946Z,0
2016-11-15T16:44:59.748Z,0
2016-11-15T16:46:14.231Z,0
2016-11-15T16:47:28.247Z,0
2016-11-15T16:48:43.089Z,0
2016-11-15T16:49:58.012Z,0
2016-11-15T16:51:12.686Z,0
2016-11-15T16:52:26.936Z,0
2016-11-15T16:53:41.179Z,0
2016-11-15T16:54:55.153Z,0
2016-11-15T16:56:09.873Z,0
2016-11-15T16:57:24.862Z,0
2016-11-15T16:58:39.379Z,0
2016-11-15T16:59:53.887Z,0
2016-11-15T17:01:08.521Z,0
2016-11-15T17:02:22.962Z,0
2016-11-15T17:03:37.288Z,0
2016-11-15T17:04:52.017Z,0
2016-11-15T17:06:06.211Z,0
2016-11-15T17:07:21.126Z,0
2016-11-15T17:08:35.624Z,0
2016-11-15T17:09:50.054Z,0
2016-11-15T17:11:04.341Z,0
2016-11-15T17:12:18.610Z,0
2016-11-15T17:13:32.693Z,0
2016-11-15T17:14:49.968Z,0
2016-11-15T17:16:03.979Z,0
2016-11-15T17:17:18.202Z,0
2016-11-15T17:18:32.575Z,0
2016-11-15T17:19:46.790Z,0
2016-11-15T17:21:16.775Z,0
2016-11-15T17:22:31.382Z,0
2016-11-15T17:24:00.596Z,0
2016-11-15T17:25:15.389Z,0
2016-11-15T17:26:30.421Z,0
2016-11-15T17:27:59.911Z,0
2016-11-15T17:29:14.195Z,0
2016-11-15T17:30:29.718Z,0
2016-11-15T17:31:44.655Z,0
2016-11-15T17:32:59.191Z,0
2016-11-15T17:34:28.834Z,0
2016-11-15T17:35:42.978Z,0
2016-11-15T17:36:58.465Z,0
2016-11-15T17:38:13.270Z,0
2016-11-15T17:39:27.449Z,0
2016-11-15T17:40:41.795Z,0
2016-11-15T17:41:56.526Z,0
2016-11-15T17:43:11.314Z,0
2016-11-15T17:44:26.402Z,0
2016-11-15T17:45:40.812Z,0
2016-11-15T17:46:55.243Z,0
2016-11-15T17:48:09.735Z,0
2016-11-15T17:49:24.796Z,0
2016-11-15T17:50:39.521Z,0
2016-11-15T17:51:53.781Z,0
2016-11-15T17:53:09.307Z,0
2016-11-15T17:54:23.812Z,0
2016-11-15T17:55:38.348Z,0
2016-11-15T17:56:52.601Z,0
2016-11-15T17:58:07.012Z,0
2016-11-15T17:59:21.721Z,0
2016-11-15T18:00:35.993Z,0
2016-11-15T18:01:51.325Z,0
2016-11-15T18:03:06.214Z,0
2016-11-15T18:04:21.043Z,0
2016-11-15T18:05:35.753Z,0
2016-11-15T18:07:06.230Z,0
2016-11-15T18:08:21.233Z,0
2016-11-15T18:09:36.155Z,0
2016-11-15T18:10:50.771Z,0
2016-11-15T18:12:05.702Z,0
2016-11-15T18:13:21.647Z,0
2016-11-15T18:14:37.534Z,0
2016-11-15T18:15:51.865Z,0
2016-11-15T18:17:06.200Z,0
2016-11-15T18:18:21.142Z,0
2016-11-15T18:19:35.644Z,0
2016-11-15T18:20:50.650Z,0
2016-11-15T18:22:19.766Z,0
2016-11-15T18:23:35.128Z,0
2016-11-15T18:24:51.092Z,0
2016-11-15T18:26:05.959Z,0
2016-11-15T18:27:20.805Z,0
2016-11-15T18:28:35.971Z,0
2016-11-15T18:29:50.419Z,0
2016-11-15T18:31:05.185Z,0
2016-11-15T18:32:21.815Z,0
2016-11-15T18:33:40.096Z,0
2016-11-15T18:34:55.706Z,0
2016-11-15T18:36:10.804Z,0
2016-11-15T18:37:26.430Z,0
2016-11-15T18:38:41.190Z,0
2016-11-15T18:39:55.640Z,0
2016-11-15T18:41:11.706Z,0
2016-11-15T18:42:38.381Z,0
2016-11-15T18:43:52.866Z,0
2016-11-15T18:45:08.262Z,0
2016-11-15T18:46:23.104Z,0
2016-11-15T18:47:37.275Z,0
2016-11-15T18:48:52.200Z,0
2016-11-15T18:50:21.902Z,0
2016-11-15T18:51:36.252Z,0
2016-11-15T18:52:51.793Z,0
2016-11-15T18:54:06.674Z,0
2016-11-15T18:55:22.076Z,0
2016-11-15T18:56:54.438Z,0
2016-11-15T18:58:09.992Z,0
2016-11-15T18:59:28.716Z,0
2016-11-15T19:00:44.832Z,0
2016-11-15T19:02:05.876Z,0
2016-11-15T19:03:22.466Z,0
2016-11-15T19:04:38.643Z,0
2016-11-15T19:05:53.138Z,0
2016-11-15T19:07:08.174Z,0
2016-11-15T19:08:23.588Z,0
2016-11-15T19:09:39.623Z,0
2016-11-15T19:10:55.498Z,0
2016-11-15T19:12:09.736Z,0
2016-11-15T19:13:24.107Z,0
2016-11-15T19:14:38.928Z,0
2016-11-15T19:15:53.184Z,0
2016-11-15T19:17:07.777Z,0
2016-11-15T19:18:23.070Z,0
2016-11-15T19:19:37.464Z,0
2016-11-15T19:20:52.222Z,0
2016-11-15T19:22:07.226Z,0
2016-11-15T19:23:22.897Z,0
2016-11-15T19:24:37.615Z,0
2016-11-15T19:25:52.496Z,0
2016-11-15T19:27:07.315Z,0
2016-11-15T19:28:21.963Z,0
2016-11-15T19:29:36.637Z,0
2016-11-15T19:30:51.025Z,0
2016-11-15T19:32:07.124Z,0
2016-11-15T19:33:22.496Z,0
2016-11-15T19:34:50.509Z,0
2016-11-15T19:36:25.390Z,0
2016-11-15T19:37:41.421Z,0
2016-11-15T19:38:56.259Z,0
2016-11-15T19:40:30.422Z,0
2016-11-15T19:41:45.028Z,0
2016-11-15T19:42:59.864Z,0
2016-11-15T19:44:14.886Z,0
2016-11-15T19:45:29.667Z,0
2016-11-15T19:46:44.403Z,0
2016-11-15T19:47:59.368Z,0
2016-11-15T19:49:14.732Z,0
2016-11-15T19:50:29.147Z,0
2016-11-15T19:51:44.419Z,0
2016-11-15T19:53:02.756Z,0
2016-11-15T19:54:18.628Z,0
2016-11-15T19:55:33.057Z,0
2016-11-15T19:56:50.399Z,0
2016-11-15T19:58:05.501Z,0
2016-11-15T19:59:20.042Z,0
2016-11-15T20:00:35.338Z,0
2016-11-15T20:01:50.288Z,0
2016-11-15T20:03:04.831Z,0
2016-11-15T20:04:20.060Z,0
2016-11-15T20:05:49.415Z,0
2016-11-15T20:07:04.364Z,0
2016-11-15T20:08:18.980Z,0
2016-11-15T20:09:33.732Z,0
2016-11-15T20:10:48.186Z,0
2016-11-15T20:12:03.290Z,0
2016-11-15T20:13:18.022Z,0
2016-11-15T20:14:32.732Z,0
2016-11-15T20:15:47.146Z,0
2016-11-15T20:17:01.971Z,0
2016-11-15T20:18:17.838Z,0
2016-11-15T20:19:32.264Z,0
2016-11-15T20:20:47.109Z,0
2016-11-15T20:22:02.152Z,0
2016-11-15T20:23:17.216Z,0
2016-11-15T20:24:31.688Z,0
2016-11-15T20:25:46.476Z,0
2016-11-15T20:27:00.932Z,0
2016-11-15T20:28:15.966Z,0
2016-11-15T20:29:30.619Z,0
2016-11-15T20:30:45.385Z,0
2016-11-15T20:31:59.906Z,0
2016-11-15T20:33:14.560Z,0
2016-11-15T20:34:29.179Z,0
2016-11-15T20:35:44.288Z,0
2016-11-15T20:36:59.279Z,0
2016-11-15T20:38:14.894Z,0
2016-11-15T20:39:29.077Z,0
2016-11-15T20:40:43.958Z,0
2016-11-15T20:41:58.456Z,0
2016-11-15T20:43:13.023Z,0
2016-11-15T20:44:27.308Z,0
2016-11-15T20:45:51.059Z,0
2016-11-15T20:47:06.275Z,0
2016-11-15T20:48:21.386Z,0
2016-11-15T20:49:36.513Z,0
2016-11-15T20:50:51.052Z,0
2016-11-15T20:52:05.767Z,0
2016-11-15T20:53:20.379Z,0
2016-11-15T20:54:35.284Z,0
2016-11-15T20:55:49.313Z,0
2016-11-15T20:57:03.762Z,0
2016-11-15T20:58:18.658Z,0
2016-11-15T20:59:33.523Z,0
2016-11-15T21:00:48.526Z,0
2016-11-15T21:02:03.543Z,0
2016-11-15T21:03:19.043Z,0
2016-11-15T21:04:33.402Z,0
2016-11-15T21:05:47.826Z,0
2016-11-15T21:07:02.579Z,0
2016-11-15T21:08:17.517Z,0
2016-11-15T21:09:33.479Z,0
2016-11-15T21:10:50.933Z,0
2016-11-15T21:12:05.310Z,0
2016-11-15T21:13:20.243Z,0
2016-11-15T21:14:34.874Z,0
2016-11-15T21:15:50.106Z,0
2016-11-15T21:17:19.593Z,0
2016-11-15T21:18:34.259Z,0
2016-11-15T21:19:49.612Z,0
2016-11-15T21:21:04.201Z,0
2016-11-15T21:22:18.789Z,0
2016-11-15T21:23:32.990Z,0
2016-11-15T21:24:47.933Z,0
2016-11-15T21:26:17.290Z,0
2016-11-15T21:27:32.156Z,0
2016-11-15T21:28:46.835Z,0
2016-11-15T21:30:02.290Z,0
2016-11-15T21:31:31.600Z,0
2016-11-15T21:33:19.287Z,0
2016-11-15T21:34:33.999Z,0
2016-11-15T21:35:48.791Z,0
2016-11-15T21:37:03.618Z,0
2016-11-15T21:38:18.492Z,0
2016-11-15T21:39:34.000Z,0
2016-11-15T21:40:48.775Z,0
2016-11-15T21:42:04.043Z,0
2016-11-15T21:43:19.261Z,0
2016-11-15T21:44:34.225Z,0
2016-11-15T21:45:49.686Z,0
2016-11-15T21:47:04.206Z,0
2016-11-15T21:48:33.294Z,0
2016-11-15T21:50:03.283Z,0
2016-11-15T21:51:19.079Z,0
2016-11-15T21:52:34.551Z,0
2016-11-15T21:53:49.797Z,0
2016-11-15T21:55:05.106Z,0
2016-11-15T21:56:20.134Z,0
2016-11-15T21:57:34.667Z,0
2016-11-15T21:58:49.613Z,0
2016-11-15T22:00:05.098Z,0
2016-11-15T22:01:20.578Z,0
2016-11-15T22:02:35.710Z,0
2016-11-15T22:03:51.365Z,0
2016-11-15T22:06:36.076Z,0
2016-11-15T22:07:51.194Z,0
2016-11-15T22:09:05.905Z,0
2016-11-15T22:10:35.046Z,0
2016-11-15T22:13:33.932Z,0
2016-11-15T22:14:48.730Z,0
2016-11-15T22:16:03.313Z,0
2016-11-15T22:17:18.683Z,0
2016-11-15T22:18:33.355Z,0
2016-11-15T22:19:48.941Z,0
2016-11-15T22:21:03.669Z,0
2016-11-15T22:22:18.967Z,0
2016-11-15T22:23:33.457Z,0
2016-11-15T22:24:48.158Z,0
2016-11-15T22:26:03.719Z,0
2016-11-15T22:27:18.231Z,0
2016-11-15T22:28:32.659Z,0
2016-11-15T22:29:47.235Z,0
2016-11-15T22:31:04.014Z,0
2016-11-15T22:32:18.696Z,0
2016-11-15T22:33:33.925Z,0
2016-11-15T22:34:48.672Z,0
2016-11-15T22:36:03.352Z,0
2016-11-15T22:37:17.494Z,0
2016-11-15T22:38:32.068Z,0
2016-11-15T22:39:46.691Z,0
2016-11-15T22:41:01.281Z,0
2016-11-15T22:42:16.176Z,0
2016-11-15T22:43:31.038Z,0
2016-11-15T22:44:45.386Z,0
2016-11-15T22:46:00.179Z,0
2016-11-15T22:47:14.712Z,0
2016-11-15T22:48:29.202Z,0
2016-11-15T22:49:43.433Z,0
2016-11-15T22:50:58.113Z,0
2016-11-15T22:52:12.351Z,0
2016-11-15T22:53:27.814Z,0
2016-11-15T22:54:42.386Z,0
2016-11-15T22:55:57.317Z,0
2016-11-15T22:57:13.043Z,0
2016-11-15T22:58:27.860Z,0
2016-11-15T22:59:43.212Z,0
2016-11-15T23:00:58.923Z,0
2016-11-15T23:03:43.586Z,0
2016-11-15T23:04:58.748Z,0
2016-11-15T23:06:13.809Z,0
2016-11-15T23:07:28.236Z,0
2016-11-15T23:08:42.918Z,0
2016-11-15T23:09:58.585Z,0
2016-11-15T23:11:13.626Z,0
2016-11-15T23:12:28.142Z,0
2016-11-15T23:13:43.103Z,0
2016-11-15T23:14:58.467Z,0
2016-11-15T23:16:14.373Z,0
2016-11-15T23:17:29.314Z,0
2016-11-15T23:18:44.043Z,0
2016-11-15T23:19:58.642Z,0
2016-11-15T23:21:13.589Z,0
2016-11-15T23:22:43.200Z,0
2016-11-15T23:23:57.705Z,0
2016-11-15T23:25:12.139Z,0
2016-11-15T23:26:27.096Z,0
2016-11-15T23:27:42.015Z,0
2016-11-15T23:28:57.559Z,0
2016-11-15T23:30:12.365Z,0
2016-11-15T23:31:41.582Z,0
2016-11-15T23:32:56.283Z,0
2016-11-15T23:34:11.173Z,0
2016-11-15T23:35:26.515Z,0
2016-11-15T23:36:41.183Z,0
2016-11-15T23:37:56.527Z,0
2016-11-15T23:39:11.664Z,0
2016-11-15T23:40:26.934Z,0
2016-11-15T23:41:42.072Z,0
2016-11-15T23:42:56.803Z,0
2016-11-15T23:44:11.863Z,0
2016-11-15T23:45:26.679Z,0
2016-11-15T23:46:41.695Z,0
2016-11-15T23:47:56.104Z,0
2016-11-15T23:50:29.347Z,0
2016-11-15T23:51:43.843Z,0
2016-11-15T23:52:59.246Z,0
2016-11-15T23:54:14.184Z,0
2016-11-15T23:55:29.068Z,0
2016-11-15T23:56:43.651Z,0
2016-11-15T23:57:58.072Z,0
2016-11-15T23:59:13.100Z,0
